GFA512 OBBI-OMDB
Flight info
| Callsign | GFA512 |
|---|---|
| Flight time | N/A |
| Altitude | 25000 |
| Route | BHR N697 SODAK P559 VUTEB |
| Aircraft | A21N/M-SDE2E3FGHIRWXY/LB1 |
Departure
| Time | 2026-05-08 18:07 |
|---|---|
| Airport | Bahrain International Airport (OBBI) |
Arrival
| Time | N/A |
|---|---|
| Airport | Dubai International Airport (OMDB) |
| Time | Latitude | Longitude | Altitude | Speed | Heading |
|---|---|---|---|---|---|
| 2026-05-08 17:41 | 26.26685 | 50.63319 | 21 ft | 0 kts | 213° |
| 2026-05-08 17:55 | 26.26701 | 50.63330 | 21 ft | 4 kts | 208° |
| 2026-05-08 17:55 | 26.26725 | 50.63344 | 22 ft | 4 kts | 197° |
| 2026-05-08 17:55 | 26.26751 | 50.63350 | 25 ft | 4 kts | 171° |
| 2026-05-08 17:55 | 26.26771 | 50.63343 | 21 ft | 1 kts | 123° |
| 2026-05-08 17:56 | 26.26773 | 50.63338 | 21 ft | 0 kts | 123° |
| 2026-05-08 17:59 | 26.26773 | 50.63339 | 21 ft | 1 kts | 123° |
| 2026-05-08 17:59 | 26.26776 | 50.63357 | 23 ft | 1 kts | 56° |
| 2026-05-08 18:00 | 26.26795 | 50.63370 | 22 ft | 5 kts | 32° |
| 2026-05-08 18:00 | 26.26819 | 50.63473 | 19 ft | 16 kts | 109° |
| 2026-05-08 18:00 | 26.26756 | 50.63584 | 20 ft | 18 kts | 124° |
| 2026-05-08 18:01 | 26.26687 | 50.63697 | 21 ft | 17 kts | 124° |
| 2026-05-08 18:01 | 26.26621 | 50.63808 | 23 ft | 17 kts | 121° |
| 2026-05-08 18:01 | 26.26554 | 50.63927 | 22 ft | 19 kts | 122° |
| 2026-05-08 18:01 | 26.26481 | 50.64056 | 20 ft | 21 kts | 122° |
| 2026-05-08 18:02 | 26.26404 | 50.64192 | 20 ft | 21 kts | 122° |
| 2026-05-08 18:02 | 26.26349 | 50.64286 | 22 ft | 22 kts | 123° |
| 2026-05-08 18:02 | 26.26226 | 50.64494 | 20 ft | 24 kts | 122° |
| 2026-05-08 18:02 | 26.26154 | 50.64618 | 20 ft | 20 kts | 123° |
| 2026-05-08 18:03 | 26.26079 | 50.64746 | 20 ft | 19 kts | 123° |
| 2026-05-08 18:03 | 26.26022 | 50.64864 | 21 ft | 15 kts | 103° |
| 2026-05-08 18:03 | 26.26029 | 50.64929 | 20 ft | 6 kts | 65° |
| 2026-05-08 18:03 | 26.26034 | 50.64940 | 20 ft | 0 kts | 65° |
| 2026-05-08 18:06 | 26.26052 | 50.64966 | 20 ft | 17 kts | 46° |
| 2026-05-08 18:06 | 26.26159 | 50.64957 | 18 ft | 18 kts | 304° |
| 2026-05-08 18:06 | 26.26341 | 50.64653 | 15 ft | 83 kts | 303° |
| 2026-05-08 18:07 | 26.26762 | 50.63918 | 16 ft | 140 kts | 303° |
| 2026-05-08 18:07 | 26.27359 | 50.62866 | 150 ft | 171 kts | 301° |
| 2026-05-08 18:07 | 26.28044 | 50.61835 | 880 ft | 162 kts | 319° |
| 2026-05-08 18:07 | 26.29019 | 50.61084 | 1331 ft | 179 kts | 334° |
| 2026-05-08 18:08 | 26.30278 | 50.60618 | 1609 ft | 204 kts | 346° |
| 2026-05-08 18:08 | 26.31751 | 50.60254 | 1806 ft | 227 kts | 338° |
| 2026-05-08 18:08 | 26.33328 | 50.59820 | 2241 ft | 241 kts | 358° |
| 2026-05-08 18:08 | 26.34963 | 50.60306 | 2909 ft | 253 kts | 26° |
| 2026-05-08 18:09 | 26.36250 | 50.61699 | 3549 ft | 268 kts | 55° |
| 2026-05-08 18:09 | 26.36823 | 50.63715 | 4276 ft | 282 kts | 83° |
| 2026-05-08 18:09 | 26.36747 | 50.65890 | 5038 ft | 287 kts | 93° |
| 2026-05-08 18:09 | 26.36539 | 50.68105 | 5847 ft | 288 kts | 92° |
| 2026-05-08 18:10 | 26.36405 | 50.70337 | 6624 ft | 288 kts | 89° |
| 2026-05-08 18:10 | 26.36536 | 50.72572 | 7256 ft | 292 kts | 71° |
| 2026-05-08 18:10 | 26.37468 | 50.74553 | 7853 ft | 292 kts | 45° |
| 2026-05-08 18:10 | 26.39000 | 50.76054 | 8497 ft | 294 kts | 33° |
| 2026-05-08 18:11 | 26.40676 | 50.77392 | 9161 ft | 298 kts | 32° |
| 2026-05-08 18:11 | 26.42387 | 50.78738 | 9844 ft | 304 kts | 32° |
| 2026-05-08 18:11 | 26.44128 | 50.80153 | 10263 ft | 319 kts | 34° |
| 2026-05-08 18:11 | 26.45960 | 50.81691 | 10455 ft | 340 kts | 35° |
| 2026-05-08 18:12 | 26.47886 | 50.83342 | 10700 ft | 357 kts | 35° |
| 2026-05-08 18:12 | 26.49858 | 50.85051 | 11296 ft | 360 kts | 36° |
| 2026-05-08 18:12 | 26.51846 | 50.86774 | 11958 ft | 363 kts | 36° |
| 2026-05-08 18:12 | 26.53853 | 50.88514 | 12591 ft | 367 kts | 37° |
| 2026-05-08 18:13 | 26.55879 | 50.90270 | 13197 ft | 371 kts | 37° |
| 2026-05-08 18:13 | 26.57081 | 50.91312 | 13557 ft | 373 kts | 37° |
| 2026-05-08 18:13 | 26.59120 | 50.93078 | 14121 ft | 377 kts | 37° |
| 2026-05-08 18:13 | 26.61203 | 50.94886 | 14622 ft | 382 kts | 37° |
| 2026-05-08 18:14 | 26.63308 | 50.96713 | 15147 ft | 386 kts | 37° |
| 2026-05-08 18:14 | 26.65441 | 50.98568 | 15636 ft | 391 kts | 37° |
| 2026-05-08 18:14 | 26.67595 | 51.00443 | 16177 ft | 393 kts | 37° |
| 2026-05-08 18:14 | 26.69764 | 51.02329 | 16722 ft | 397 kts | 37° |
| 2026-05-08 18:15 | 26.71956 | 51.04236 | 17235 ft | 400 kts | 37° |
| 2026-05-08 18:15 | 26.74013 | 51.06350 | 17713 ft | 405 kts | 51° |
| 2026-05-08 18:15 | 26.75473 | 51.09041 | 18189 ft | 407 kts | 69° |
| 2026-05-08 18:15 | 26.76187 | 51.12108 | 18596 ft | 408 kts | 86° |
| 2026-05-08 18:16 | 26.76088 | 51.15226 | 19037 ft | 406 kts | 104° |
| 2026-05-08 18:16 | 26.75253 | 51.18273 | 19456 ft | 406 kts | 115° |
| 2026-05-08 18:16 | 26.74147 | 51.21140 | 19905 ft | 407 kts | 117° |
| 2026-05-08 18:16 | 26.73015 | 51.24055 | 20343 ft | 410 kts | 116° |
| 2026-05-08 18:17 | 26.71937 | 51.27024 | 20781 ft | 413 kts | 114° |
| 2026-05-08 18:17 | 26.70914 | 51.30034 | 21244 ft | 416 kts | 114° |
| 2026-05-08 18:17 | 26.69915 | 51.33087 | 21661 ft | 419 kts | 113° |
| 2026-05-08 18:17 | 26.68926 | 51.36163 | 22070 ft | 422 kts | 113° |
| 2026-05-08 18:18 | 26.67934 | 51.39260 | 22490 ft | 424 kts | 113° |
| 2026-05-08 18:18 | 26.66935 | 51.42377 | 22907 ft | 427 kts | 113° |
| 2026-05-08 18:18 | 26.65928 | 51.45511 | 23311 ft | 430 kts | 113° |
| 2026-05-08 18:18 | 26.64916 | 51.48665 | 23663 ft | 433 kts | 113° |
| 2026-05-08 18:19 | 26.63900 | 51.51837 | 24004 ft | 435 kts | 114° |
| 2026-05-08 18:19 | 26.62879 | 51.55024 | 24325 ft | 437 kts | 114° |
| 2026-05-08 18:19 | 26.61848 | 51.58234 | 24653 ft | 439 kts | 114° |
| 2026-05-08 18:19 | 26.60810 | 51.61460 | 24857 ft | 442 kts | 114° |
| 2026-05-08 18:20 | 26.59769 | 51.64692 | 24875 ft | 442 kts | 114° |
| 2026-05-08 18:20 | 26.58741 | 51.67879 | 24865 ft | 441 kts | 114° |
| 2026-05-08 18:20 | 26.57700 | 51.71101 | 24871 ft | 441 kts | 114° |
| 2026-05-08 18:20 | 26.56657 | 51.74326 | 24870 ft | 442 kts | 114° |
| 2026-05-08 18:21 | 26.55613 | 51.77553 | 24864 ft | 441 kts | 114° |
| 2026-05-08 18:21 | 26.54569 | 51.80777 | 24865 ft | 442 kts | 114° |
| 2026-05-08 18:21 | 26.53524 | 51.84001 | 24869 ft | 441 kts | 114° |
| 2026-05-08 18:21 | 26.52478 | 51.87225 | 24864 ft | 441 kts | 114° |
| 2026-05-08 18:22 | 26.51423 | 51.90443 | 24868 ft | 441 kts | 115° |
| 2026-05-08 18:22 | 26.50355 | 51.93651 | 24869 ft | 441 kts | 115° |
| 2026-05-08 18:22 | 26.49284 | 51.96858 | 24861 ft | 441 kts | 115° |
| 2026-05-08 18:22 | 26.48212 | 52.00069 | 24863 ft | 441 kts | 115° |
| 2026-05-08 18:23 | 26.47142 | 52.03275 | 24857 ft | 441 kts | 115° |
| 2026-05-08 18:23 | 26.46071 | 52.06486 | 24855 ft | 441 kts | 115° |
| 2026-05-08 18:23 | 26.44999 | 52.09699 | 24863 ft | 441 kts | 115° |
| 2026-05-08 18:23 | 26.43928 | 52.12906 | 24855 ft | 441 kts | 115° |
| 2026-05-08 18:24 | 26.42870 | 52.16072 | 24862 ft | 442 kts | 115° |
| 2026-05-08 18:24 | 26.41795 | 52.19285 | 24855 ft | 441 kts | 115° |
| 2026-05-08 18:24 | 26.40722 | 52.22491 | 24855 ft | 442 kts | 115° |
| 2026-05-08 18:24 | 26.39647 | 52.25698 | 24854 ft | 441 kts | 115° |
| 2026-05-08 18:25 | 26.38570 | 52.28907 | 24856 ft | 441 kts | 115° |
| 2026-05-08 18:25 | 26.37494 | 52.32114 | 24853 ft | 442 kts | 115° |
| 2026-05-08 18:25 | 26.36416 | 52.35320 | 24850 ft | 442 kts | 115° |
| 2026-05-08 18:25 | 26.35338 | 52.38528 | 24850 ft | 442 kts | 115° |
| 2026-05-08 18:26 | 26.34200 | 52.41702 | 24851 ft | 440 kts | 117° |
| 2026-05-08 18:26 | 26.32986 | 52.44835 | 24850 ft | 440 kts | 118° |
| 2026-05-08 18:26 | 26.31758 | 52.47953 | 24844 ft | 440 kts | 118° |
| 2026-05-08 18:26 | 26.30533 | 52.51083 | 24843 ft | 440 kts | 117° |
| 2026-05-08 18:27 | 26.29318 | 52.54215 | 24846 ft | 440 kts | 117° |
| 2026-05-08 18:27 | 26.28517 | 52.56288 | 24844 ft | 440 kts | 117° |
| 2026-05-08 18:27 | 26.26903 | 52.60481 | 24844 ft | 440 kts | 117° |
| 2026-05-08 18:27 | 26.25698 | 52.63614 | 24844 ft | 440 kts | 117° |
| 2026-05-08 18:28 | 26.24491 | 52.66750 | 24844 ft | 440 kts | 117° |
| 2026-05-08 18:28 | 26.23285 | 52.69885 | 24844 ft | 440 kts | 117° |
| 2026-05-08 18:28 | 26.22086 | 52.73020 | 24842 ft | 440 kts | 117° |
| 2026-05-08 18:28 | 26.20887 | 52.76157 | 24836 ft | 440 kts | 117° |
| 2026-05-08 18:29 | 26.19686 | 52.79297 | 24837 ft | 440 kts | 117° |
| 2026-05-08 18:29 | 26.18486 | 52.82431 | 24836 ft | 440 kts | 117° |
| 2026-05-08 18:29 | 26.17282 | 52.85570 | 24836 ft | 441 kts | 117° |
| 2026-05-08 18:29 | 26.16080 | 52.88702 | 24837 ft | 441 kts | 117° |
| 2026-05-08 18:30 | 26.14891 | 52.91797 | 24835 ft | 440 kts | 117° |
| 2026-05-08 18:30 | 26.13687 | 52.94929 | 24833 ft | 441 kts | 117° |
| 2026-05-08 18:30 | 26.12479 | 52.98067 | 24832 ft | 441 kts | 117° |
| 2026-05-08 18:30 | 26.11271 | 53.01205 | 24827 ft | 441 kts | 117° |
| 2026-05-08 18:31 | 26.10062 | 53.04341 | 24828 ft | 441 kts | 117° |
| 2026-05-08 18:31 | 26.08885 | 53.07486 | 24829 ft | 441 kts | 116° |
| 2026-05-08 18:31 | 26.07728 | 53.10656 | 24826 ft | 441 kts | 116° |
| 2026-05-08 18:31 | 26.06577 | 53.13820 | 24827 ft | 441 kts | 116° |
| 2026-05-08 18:32 | 26.05814 | 53.15912 | 24826 ft | 441 kts | 116° |
| 2026-05-08 18:32 | 26.04656 | 53.19075 | 24825 ft | 441 kts | 116° |
| 2026-05-08 18:32 | 26.03496 | 53.22233 | 24824 ft | 441 kts | 116° |
| 2026-05-08 18:32 | 26.02334 | 53.25386 | 24821 ft | 441 kts | 116° |
| 2026-05-08 18:33 | 26.01168 | 53.28547 | 24823 ft | 441 kts | 116° |
| 2026-05-08 18:33 | 26.00005 | 53.31697 | 24821 ft | 441 kts | 116° |
| 2026-05-08 18:33 | 25.98840 | 53.34852 | 24820 ft | 441 kts | 116° |
| 2026-05-08 18:33 | 25.97675 | 53.38003 | 24824 ft | 441 kts | 116° |
| 2026-05-08 18:34 | 25.96509 | 53.41152 | 24821 ft | 441 kts | 116° |
| 2026-05-08 18:34 | 25.95342 | 53.44302 | 24816 ft | 441 kts | 116° |
| 2026-05-08 18:34 | 25.94176 | 53.47448 | 24815 ft | 441 kts | 116° |
| 2026-05-08 18:34 | 25.93026 | 53.50555 | 24818 ft | 441 kts | 115° |
| 2026-05-08 18:35 | 25.91894 | 53.53770 | 24815 ft | 441 kts | 114° |
| 2026-05-08 18:35 | 25.90824 | 53.56914 | 24813 ft | 441 kts | 114° |
| 2026-05-08 18:35 | 25.89744 | 53.60099 | 24812 ft | 441 kts | 114° |
| 2026-05-08 18:35 | 25.88644 | 53.63324 | 24816 ft | 441 kts | 114° |
| 2026-05-08 18:36 | 25.87552 | 53.66506 | 24812 ft | 440 kts | 114° |
| 2026-05-08 18:36 | 25.86473 | 53.69636 | 24814 ft | 440 kts | 114° |
| 2026-05-08 18:36 | 25.85377 | 53.72808 | 24810 ft | 440 kts | 114° |
| 2026-05-08 18:36 | 25.84279 | 53.75974 | 24758 ft | 437 kts | 114° |
| 2026-05-08 18:37 | 25.83190 | 53.79113 | 24471 ft | 434 kts | 114° |
| 2026-05-08 18:37 | 25.82110 | 53.82222 | 24024 ft | 430 kts | 114° |
| 2026-05-08 18:37 | 25.81038 | 53.85304 | 23531 ft | 426 kts | 114° |
| 2026-05-08 18:37 | 25.79976 | 53.88353 | 22963 ft | 421 kts | 114° |
| 2026-05-08 18:38 | 25.78925 | 53.91371 | 22371 ft | 416 kts | 114° |
| 2026-05-08 18:38 | 25.77885 | 53.94353 | 21794 ft | 412 kts | 114° |
| 2026-05-08 18:38 | 25.76858 | 53.97296 | 21244 ft | 407 kts | 114° |
| 2026-05-08 18:38 | 25.75842 | 54.00206 | 20672 ft | 403 kts | 114° |
| 2026-05-08 18:39 | 25.74862 | 54.03091 | 20143 ft | 398 kts | 112° |
| 2026-05-08 18:39 | 25.73970 | 54.05986 | 19614 ft | 394 kts | 110° |
| 2026-05-08 18:39 | 25.73114 | 54.08856 | 19087 ft | 390 kts | 110° |
| 2026-05-08 18:39 | 25.72263 | 54.11696 | 18582 ft | 386 kts | 110° |
| 2026-05-08 18:40 | 25.71414 | 54.14497 | 18070 ft | 381 kts | 110° |
| 2026-05-08 18:40 | 25.70567 | 54.17268 | 17494 ft | 378 kts | 110° |
| 2026-05-08 18:40 | 25.69738 | 54.19973 | 16918 ft | 375 kts | 111° |
| 2026-05-08 18:40 | 25.68900 | 54.22697 | 16325 ft | 372 kts | 111° |
| 2026-05-08 18:41 | 25.68065 | 54.25405 | 15763 ft | 369 kts | 111° |
| 2026-05-08 18:41 | 25.67237 | 54.28092 | 15199 ft | 367 kts | 111° |
| 2026-05-08 18:41 | 25.66416 | 54.30755 | 14663 ft | 364 kts | 111° |
| 2026-05-08 18:41 | 25.65599 | 54.33404 | 14140 ft | 361 kts | 111° |
| 2026-05-08 18:42 | 25.64790 | 54.36026 | 13611 ft | 359 kts | 111° |
| 2026-05-08 18:42 | 25.63982 | 54.38635 | 13021 ft | 357 kts | 112° |
| 2026-05-08 18:42 | 25.63177 | 54.41230 | 12440 ft | 355 kts | 112° |
| 2026-05-08 18:42 | 25.62377 | 54.43805 | 12082 ft | 350 kts | 112° |
| 2026-05-08 18:43 | 25.61575 | 54.46382 | 12005 ft | 357 kts | 111° |
| 2026-05-08 18:43 | 25.60768 | 54.48974 | 11995 ft | 355 kts | 111° |
| 2026-05-08 18:43 | 25.59964 | 54.51557 | 11867 ft | 353 kts | 111° |
| 2026-05-08 18:43 | 25.59164 | 54.54131 | 11461 ft | 353 kts | 111° |
| 2026-05-08 18:44 | 25.58376 | 54.56658 | 10970 ft | 351 kts | 111° |
| 2026-05-08 18:44 | 25.57571 | 54.59238 | 10591 ft | 345 kts | 111° |
| 2026-05-08 18:44 | 25.56804 | 54.61663 | 10460 ft | 331 kts | 112° |
| 2026-05-08 18:44 | 25.56051 | 54.64010 | 10330 ft | 317 kts | 112° |
| 2026-05-08 18:45 | 25.55327 | 54.66260 | 10212 ft | 304 kts | 112° |
| 2026-05-08 18:45 | 25.54634 | 54.68415 | 10101 ft | 290 kts | 112° |
| 2026-05-08 18:45 | 25.53970 | 54.70482 | 9913 ft | 281 kts | 112° |
| 2026-05-08 18:45 | 25.53314 | 54.72517 | 9528 ft | 281 kts | 112° |
| 2026-05-08 18:46 | 25.52660 | 54.74545 | 9171 ft | 278 kts | 112° |
| 2026-05-08 18:46 | 25.52017 | 54.76543 | 9024 ft | 276 kts | 112° |
| 2026-05-08 18:46 | 25.51352 | 54.78558 | 9000 ft | 279 kts | 115° |
| 2026-05-08 18:46 | 25.50581 | 54.80526 | 9002 ft | 278 kts | 116° |
| 2026-05-08 18:47 | 25.49817 | 54.82483 | 8999 ft | 278 kts | 116° |
| 2026-05-08 18:47 | 25.49052 | 54.84452 | 8984 ft | 278 kts | 116° |
| 2026-05-08 18:47 | 25.48359 | 54.86236 | 8855 ft | 275 kts | 116° |
| 2026-05-08 18:47 | 25.47605 | 54.88177 | 8533 ft | 274 kts | 116° |
| 2026-05-08 18:48 | 25.46850 | 54.90112 | 8170 ft | 273 kts | 115° |
| 2026-05-08 18:48 | 25.46109 | 54.92015 | 7799 ft | 273 kts | 115° |
| 2026-05-08 18:48 | 25.45360 | 54.93938 | 7450 ft | 271 kts | 115° |
| 2026-05-08 18:48 | 25.44609 | 54.95838 | 7130 ft | 268 kts | 118° |
| 2026-05-08 18:49 | 25.43698 | 54.97631 | 6768 ft | 267 kts | 122° |
| 2026-05-08 18:49 | 25.42767 | 54.99409 | 6428 ft | 266 kts | 121° |
| 2026-05-08 18:49 | 25.41848 | 55.01175 | 6089 ft | 264 kts | 121° |
| 2026-05-08 18:49 | 25.40936 | 55.02936 | 5696 ft | 265 kts | 121° |
| 2026-05-08 18:50 | 25.40016 | 55.04712 | 5309 ft | 265 kts | 120° |
| 2026-05-08 18:50 | 25.39271 | 55.06149 | 5026 ft | 265 kts | 120° |
| 2026-05-08 18:50 | 25.38357 | 55.07913 | 4681 ft | 264 kts | 120° |
| 2026-05-08 18:50 | 25.37446 | 55.09668 | 4324 ft | 263 kts | 120° |
| 2026-05-08 18:51 | 25.36616 | 55.11306 | 3955 ft | 265 kts | 115° |
| 2026-05-08 18:51 | 25.36081 | 55.13221 | 3566 ft | 265 kts | 96° |
| 2026-05-08 18:51 | 25.36012 | 55.15254 | 3203 ft | 266 kts | 89° |
| 2026-05-08 18:51 | 25.35986 | 55.17303 | 2842 ft | 267 kts | 90° |
| 2026-05-08 18:52 | 25.35948 | 55.19348 | 2513 ft | 266 kts | 90° |
| 2026-05-08 18:52 | 25.35904 | 55.21397 | 2160 ft | 267 kts | 90° |
| 2026-05-08 18:52 | 25.35859 | 55.23451 | 1996 ft | 267 kts | 90° |
| 2026-05-08 18:52 | 25.35812 | 55.25505 | 2129 ft | 268 kts | 90° |
| 2026-05-08 18:53 | 25.35770 | 55.27573 | 2626 ft | 270 kts | 90° |
| 2026-05-08 18:53 | 25.35727 | 55.29622 | 3517 ft | 264 kts | 90° |
| 2026-05-08 18:53 | 25.35689 | 55.31262 | 4239 ft | 261 kts | 93° |
| 2026-05-08 18:53 | 25.35308 | 55.33217 | 5004 ft | 261 kts | 114° |
| 2026-05-08 18:54 | 25.34405 | 55.34954 | 5754 ft | 262 kts | 123° |
| 2026-05-08 18:54 | 25.33429 | 55.36661 | 6520 ft | 263 kts | 123° |
| 2026-05-08 18:54 | 25.32461 | 55.38381 | 7197 ft | 266 kts | 123° |
| 2026-05-08 18:54 | 25.31475 | 55.40148 | 7513 ft | 276 kts | 122° |
| 2026-05-08 18:55 | 25.29446 | 55.43797 | 7450 ft | 274 kts | 122° |
| 2026-05-08 18:55 | 25.28463 | 55.45566 | 7308 ft | 268 kts | 122° |
| 2026-05-08 18:55 | 25.27489 | 55.47315 | 6972 ft | 266 kts | 122° |
| 2026-05-08 18:56 | 25.26518 | 55.49056 | 6610 ft | 266 kts | 122° |
| 2026-05-08 18:56 | 25.25549 | 55.50795 | 6271 ft | 265 kts | 122° |
| 2026-05-08 18:56 | 25.24586 | 55.52526 | 5910 ft | 265 kts | 122° |
| 2026-05-08 18:56 | 25.23625 | 55.54256 | 5539 ft | 264 kts | 122° |
| 2026-05-08 18:57 | 25.22663 | 55.55987 | 5181 ft | 264 kts | 122° |